Time;durP1;ratioP1;P1;durP2;ratioP2;P2;SDS_P1;SDS_P2;PMS_P1;PMS_P2;Temp;Humidity;BMP_temperature;BMP_pressure;BME280_temperature;BME280_humidity;BME280_pressure;Samples;Min_cycle;Max_cycle;Signal;HPM_P1;HPM_P2
2023/01/26 03:27:26;;;;;;;1999.90;999.90;;;;;;;;;;4953947;29;20208;-70
2023/01/26 03:30:12;;;;;;;1999.90;999.90;;;;;;;;;;4953373;28;20594;-70
2023/01/26 03:32:58;;;;;;;1999.90;999.90;;;;;;;;;;4934429;29;20285;-67
2023/01/26 03:35:43;;;;;;;1999.90;999.90;;;;;;;;;;4948396;28;20343;-69
2023/01/26 03:38:28;;;;;;;1999.90;999.90;;;;;;;;;;4972796;28;20347;-67
2023/01/26 03:56:32;;;;;;;1999.90;999.90;;;;;;;;;;4971031;28;20435;-69
2023/01/26 03:59:24;;;;;;;1999.90;999.90;;;;;;;;;;4972595;28;20224;-68
2023/01/26 04:08:21;;;;;;;1999.90;999.90;;;;;;;;;;4976388;28;20903;-69
2023/01/26 04:11:06;;;;;;;1999.90;999.90;;;;;;;;;;4976317;28;20578;-70
2023/01/26 04:23:01;;;;;;;1999.90;999.90;;;;;;;;;;4975927;28;20754;-70
2023/01/26 04:25:47;;;;;;;1999.90;999.90;;;;;;;;;;4937089;29;20213;-70
2023/01/26 04:28:31;;;;;;;1999.90;999.90;;;;;;;;;;4937523;29;20416;-68
2023/01/26 04:31:18;;;;;;;1999.90;999.90;;;;;;;;;;4945314;29;20291;-70
2023/01/26 04:34:04;;;;;;;1999.90;999.90;;;;;;;;;;4955850;28;20353;-70
2023/01/26 04:36:49;;;;;;;1999.90;999.90;;;;;;;;;;4956255;29;20215;-71
2023/01/26 04:39:33;;;;;;;1999.90;999.90;;;;;;;;;;4956483;29;20231;-70
2023/01/26 04:42:18;;;;;;;1999.90;999.90;;;;;;;;;;4956189;29;20841;-70
2023/01/26 04:45:03;;;;;;;1999.90;999.90;;;;;;;;;;4955518;29;20778;-70
2023/01/26 04:47:50;;;;;;;1999.90;999.90;;;;;;;;;;4956391;29;20887;-69
2023/01/26 04:50:35;;;;;;;1999.90;999.90;;;;;;;;;;4955936;29;20739;-69
2023/01/26 04:53:20;;;;;;;1999.90;999.90;;;;;;;;;;4955990;28;20240;-70
2023/01/26 04:56:07;;;;;;;1999.90;999.90;;;;;;;;;;4955297;29;20710;-70
2023/01/26 04:58:53;;;;;;;1999.90;999.90;;;;;;;;;;4955704;29;20681;-69
2023/01/26 05:01:38;;;;;;;1999.90;999.90;;;;;;;;;;4955497;29;20213;-69
2023/01/26 05:04:24;;;;;;;1999.90;999.90;;;;;;;;;;4955675;28;20224;-70
2023/01/26 05:07:09;;;;;;;1999.90;999.90;;;;;;;;;;4955950;29;20592;-70
2023/01/26 05:09:54;;;;;;;1999.90;999.90;;;;;;;;;;4955065;29;20205;-70
2023/01/26 05:12:41;;;;;;;1999.90;999.90;;;;;;;;;;4954800;28;20220;-68
2023/01/26 05:15:26;;;;;;;1999.90;999.90;;;;;;;;;;4954788;29;20213;-69
2023/01/26 05:18:11;;;;;;;1999.90;999.90;;;;;;;;;;4955831;29;20253;-70
2023/01/26 05:20:58;;;;;;;1999.90;999.90;;;;;;;;;;4955393;29;20714;-70
2023/01/26 05:23:43;;;;;;;1999.90;999.90;;;;;;;;;;4955196;29;20830;-70
2023/01/26 05:26:28;;;;;;;1999.90;999.90;;;;;;;;;;4955055;29;20209;-70
2023/01/26 05:29:13;;;;;;;1999.90;999.90;;;;;;;;;;4955353;29;20216;-69
2023/01/26 05:31:58;;;;;;;1999.90;999.90;;;;;;;;;;4936351;29;20214;-70
2023/01/26 05:34:43;;;;;;;1999.90;999.90;;;;;;;;;;4940516;29;20300;-70
2023/01/26 05:37:29;;;;;;;1999.90;999.90;;;;;;;;;;4955480;29;20305;-70
2023/01/26 05:40:15;;;;;;;1999.90;999.90;;;;;;;;;;4954931;29;20220;-70
2023/01/26 05:43:00;;;;;;;1999.90;999.90;;;;;;;;;;4955274;28;20228;-69
2023/01/26 05:45:45;;;;;;;1999.90;999.90;;;;;;;;;;4954668;29;20212;-70
2023/01/26 05:48:30;;;;;;;1999.90;999.90;;;;;;;;;;4955271;29;20208;-69
2023/01/26 05:51:14;;;;;;;1999.90;999.90;;;;;;;;;;4955015;29;20216;-69
2023/01/26 05:54:01;;;;;;;1999.90;999.90;;;;;;;;;;4954496;28;20615;-70
2023/01/26 05:56:46;;;;;;;1999.90;999.90;;;;;;;;;;4955060;29;20282;-69
2023/01/26 05:59:31;;;;;;;1999.90;999.90;;;;;;;;;;4954768;29;20718;-69
2023/01/26 06:02:16;;;;;;;1999.90;999.90;;;;;;;;;;4953195;29;20780;-69
2023/01/26 06:05:01;;;;;;;1999.90;999.90;;;;;;;;;;4954279;29;20268;-70
2023/01/26 06:07:45;;;;;;;1999.90;999.90;;;;;;;;;;4954902;29;20245;-69
2023/01/26 06:10:32;;;;;;;1999.90;999.90;;;;;;;;;;4954440;29;20288;-69
2023/01/26 06:13:17;;;;;;;1999.90;999.90;;;;;;;;;;4954599;29;20232;-69
2023/01/26 06:16:02;;;;;;;1999.90;999.90;;;;;;;;;;4954407;29;20287;-70
2023/01/26 06:18:47;;;;;;;1999.90;999.90;;;;;;;;;;4954451;29;20212;-69
2023/01/26 06:21:32;;;;;;;1999.90;999.90;;;;;;;;;;4954650;29;20217;-69
2023/01/26 06:24:17;;;;;;;1999.90;999.90;;;;;;;;;;4953478;28;20327;-70
2023/01/26 06:27:05;;;;;;;1999.90;999.90;;;;;;;;;;4954332;29;20213;-69
2023/01/26 06:29:50;;;;;;;1999.90;999.90;;;;;;;;;;4953555;29;20208;-66
2023/01/26 06:32:36;;;;;;;1999.90;999.90;;;;;;;;;;4947786;29;20284;-69
2023/01/26 06:35:21;;;;;;;1999.90;999.90;;;;;;;;;;4954100;29;20209;-69
2023/01/26 06:38:06;;;;;;;1999.90;999.90;;;;;;;;;;4935251;29;20685;-68
2023/01/26 06:40:51;;;;;;;1999.90;999.90;;;;;;;;;;4935058;29;20270;-69
2023/01/26 06:43:37;;;;;;;1999.90;999.90;;;;;;;;;;4952525;28;20224;-69
2023/01/26 06:46:23;;;;;;;1999.90;999.90;;;;;;;;;;4953743;29;20208;-69
2023/01/26 06:49:09;;;;;;;1999.90;999.90;;;;;;;;;;4954065;29;20704;-67
2023/01/26 06:51:58;;;;;;;1999.90;999.90;;;;;;;;;;4954223;29;20303;-69
2023/01/26 06:54:43;;;;;;;1999.90;999.90;;;;;;;;;;4953469;28;20229;-66
2023/01/26 06:57:28;;;;;;;1999.90;999.90;;;;;;;;;;4954095;29;20299;-67
2023/01/26 07:00:15;;;;;;;1999.90;999.90;;;;;;;;;;4953295;29;20595;-69
2023/01/26 07:03:00;;;;;;;1999.90;999.90;;;;;;;;;;4953926;29;20308;-69
2023/01/26 07:05:45;;;;;;;1999.90;999.90;;;;;;;;;;4955672;28;20458;-67
2023/01/26 07:08:30;;;;;;;1999.90;999.90;;;;;;;;;;4972808;28;20212;-68
2023/01/26 07:11:16;;;;;;;1999.90;999.90;;;;;;;;;;4972300;28;20227;-66
2023/01/26 07:14:00;;;;;;;1999.90;999.90;;;;;;;;;;4967068;28;20355;-69
2023/01/26 07:16:47;;;;;;;1999.90;999.90;;;;;;;;;;4971047;28;20419;-69
2023/01/26 07:19:32;;;;;;;1999.90;999.90;;;;;;;;;;4970806;28;20577;-69
2023/01/26 07:22:18;;;;;;;1999.90;999.90;;;;;;;;;;4971910;28;20204;-68
2023/01/26 07:25:03;;;;;;;1999.90;999.90;;;;;;;;;;4971843;28;20296;-69
2023/01/26 07:27:48;;;;;;;1999.90;999.90;;;;;;;;;;4972001;28;20210;-69
2023/01/26 07:30:32;;;;;;;1999.90;999.90;;;;;;;;;;4972049;28;20215;-68
2023/01/26 07:33:19;;;;;;;1999.90;999.90;;;;;;;;;;4971678;28;20362;-69
2023/01/26 07:36:04;;;;;;;1999.90;999.90;;;;;;;;;;4973304;28;20235;-68
2023/01/26 07:38:49;;;;;;;1999.90;999.90;;;;;;;;;;4970424;28;20264;-69
2023/01/26 07:41:34;;;;;;;1999.90;999.90;;;;;;;;;;4955194;28;20284;-67
2023/01/26 07:44:19;;;;;;;1999.90;999.90;;;;;;;;;;4956669;29;20593;-67
2023/01/26 07:47:04;;;;;;;1999.90;999.90;;;;;;;;;;4956763;29;20754;-69
2023/01/26 07:49:50;;;;;;;1999.90;999.90;;;;;;;;;;4956488;29;20695;-68
2023/01/26 07:52:35;;;;;;;1999.90;999.90;;;;;;;;;;4956955;29;20209;-68
2023/01/26 07:55:20;;;;;;;1999.90;999.90;;;;;;;;;;4951513;29;20274;-68
2023/01/26 07:58:05;;;;;;;1999.90;999.90;;;;;;;;;;4958126;28;20207;-69
2023/01/26 08:00:50;;;;;;;1999.90;999.90;;;;;;;;;;4976276;28;20608;-68
2023/01/26 08:03:35;;;;;;;1999.90;999.90;;;;;;;;;;4942535;28;20229;-68
2023/01/26 08:06:23;;;;;;;1999.90;999.90;;;;;;;;;;4961881;28;20359;-67
2023/01/26 08:09:08;;;;;;;1999.90;999.90;;;;;;;;;;4956046;29;20219;-69
2023/01/26 08:11:56;;;;;;;1999.90;999.90;;;;;;;;;;4956814;29;20574;-69
2023/01/26 08:14:41;;;;;;;1999.90;999.90;;;;;;;;;;4953243;29;20610;-69
2023/01/26 08:17:26;;;;;;;1999.90;999.90;;;;;;;;;;4956075;29;20211;-69
2023/01/26 08:20:12;;;;;;;1999.90;999.90;;;;;;;;;;4946596;29;20233;-69
2023/01/26 08:22:59;;;;;;;1999.90;999.90;;;;;;;;;;4955368;28;20228;-68
2023/01/26 08:25:44;;;;;;;1999.90;999.90;;;;;;;;;;4956282;29;20337;-69
2023/01/26 08:28:29;;;;;;;1999.90;999.90;;;;;;;;;;4956241;29;20228;-70
2023/01/26 08:31:17;;;;;;;1999.90;999.90;;;;;;;;;;4956404;29;20205;-69
2023/01/26 08:34:03;;;;;;;1999.90;999.90;;;;;;;;;;4955935;28;20236;-69
2023/01/26 08:36:48;;;;;;;1999.90;999.90;;;;;;;;;;4955698;29;20272;-68
2023/01/26 08:39:34;;;;;;;1999.90;999.90;;;;;;;;;;4956127;29;20228;-70
2023/01/26 08:42:19;;;;;;;1999.90;999.90;;;;;;;;;;4956020;29;20212;-69
2023/01/26 08:45:04;;;;;;;1999.90;999.90;;;;;;;;;;4955586;29;20272;-69
2023/01/26 08:47:50;;;;;;;1999.90;999.90;;;;;;;;;;4954645;28;20209;-69
2023/01/26 08:50:35;;;;;;;1999.90;999.90;;;;;;;;;;4955734;29;20209;-69
2023/01/26 08:53:20;;;;;;;1999.90;999.90;;;;;;;;;;4955932;29;20679;-70
2023/01/26 08:56:08;;;;;;;1999.90;999.90;;;;;;;;;;4955701;29;20253;-69
2023/01/26 08:58:53;;;;;;;1999.90;999.90;;;;;;;;;;4955888;29;20272;-70
2023/01/26 09:01:38;;;;;;;1999.90;999.90;;;;;;;;;;4955988;29;20299;-70
2023/01/26 09:04:23;;;;;;;1999.90;999.90;;;;;;;;;;4955333;28;20239;-70
2023/01/26 09:07:08;;;;;;;1999.90;999.90;;;;;;;;;;4955770;29;20694;-70
2023/01/26 09:09:53;;;;;;;1999.90;999.90;;;;;;;;;;4955565;29;20694;-70
2023/01/26 09:12:39;;;;;;;1999.90;999.90;;;;;;;;;;4954309;28;20220;-70
2023/01/26 09:15:25;;;;;;;1999.90;999.90;;;;;;;;;;4955024;29;20252;-70
2023/01/26 09:18:10;;;;;;;1999.90;999.90;;;;;;;;;;4954605;29;20428;-70
2023/01/26 09:20:55;;;;;;;1999.90;999.90;;;;;;;;;;4955546;29;20698;-70
2023/01/26 09:23:40;;;;;;;1999.90;999.90;;;;;;;;;;4942730;29;20554;-70
2023/01/26 09:26:25;;;;;;;1999.90;999.90;;;;;;;;;;4955010;29;20209;-69
2023/01/26 09:29:11;;;;;;;1999.90;999.90;;;;;;;;;;4954961;29;20221;-69
2023/01/26 09:31:56;;;;;;;1999.90;999.90;;;;;;;;;;4967178;28;20575;-69
2023/01/26 09:34:41;;;;;;;1999.90;999.90;;;;;;;;;;4972547;28;20227;-70
2023/01/26 09:37:26;;;;;;;1999.90;999.90;;;;;;;;;;4969681;28;20706;-69
2023/01/26 09:40:15;;;;;;;1999.90;999.90;;;;;;;;;;4973272;28;20260;-70
2023/01/26 09:43:07;;;;;;;1999.90;999.90;;;;;;;;;;4972825;28;20720;-69
2023/01/26 09:46:00;;;;;;;1999.90;999.90;;;;;;;;;;4972116;28;20285;-68
2023/01/26 09:48:50;;;;;;;1999.90;999.90;;;;;;;;;;4967680;28;20200;-69
2023/01/26 09:51:36;;;;;;;1999.90;999.90;;;;;;;;;;4974296;28;20279;-71
2023/01/26 09:54:25;;;;;;;1999.90;999.90;;;;;;;;;;4973665;28;20224;-69
2023/01/26 09:57:12;;;;;;;1999.90;999.90;;;;;;;;;;4973997;28;20212;-69
2023/01/26 09:59:59;;;;;;;1999.90;999.90;;;;;;;;;;4973867;28;20212;-69
2023/01/26 10:02:52;;;;;;;1999.90;999.90;;;;;;;;;;4966077;28;20217;-68
2023/01/26 10:05:41;;;;;;;1999.90;999.90;;;;;;;;;;4959185;28;20212;-69
2023/01/26 10:08:26;;;;;;;1999.90;999.90;;;;;;;;;;4959073;28;20252;-69
2023/01/26 10:11:14;;;;;;;1999.90;999.90;;;;;;;;;;4972301;28;20219;-69
2023/01/26 10:14:02;;;;;;;1999.90;999.90;;;;;;;;;;4971302;28;20355;-69
2023/01/26 10:16:51;;;;;;;1999.90;999.90;;;;;;;;;;4972514;28;20298;-69
2023/01/26 10:19:39;;;;;;;1999.90;999.90;;;;;;;;;;4969927;28;20256;-69
2023/01/26 10:22:28;;;;;;;1999.90;999.90;;;;;;;;;;4972485;28;20215;-69
2023/01/26 10:25:14;;;;;;;1999.90;999.90;;;;;;;;;;4969583;28;20220;-69
2023/01/26 10:28:00;;;;;;;1999.90;999.90;;;;;;;;;;4967298;28;20411;-69
2023/01/26 10:30:47;;;;;;;1999.90;999.90;;;;;;;;;;4972571;28;20701;-69
2023/01/26 10:33:33;;;;;;;1999.90;999.90;;;;;;;;;;4972006;28;20220;-69
2023/01/26 10:36:20;;;;;;;1999.90;999.90;;;;;;;;;;4971911;28;20211;-69
2023/01/26 10:39:06;;;;;;;1999.90;999.90;;;;;;;;;;4972235;28;20280;-69
2023/01/26 10:41:57;;;;;;;1999.90;999.90;;;;;;;;;;4972201;28;20282;-68
2023/01/26 10:44:43;;;;;;;1999.90;999.90;;;;;;;;;;4971507;28;20231;-68
2023/01/26 10:47:29;;;;;;;1999.90;999.90;;;;;;;;;;4966779;28;20249;-69
2023/01/26 10:50:21;;;;;;;1999.90;999.90;;;;;;;;;;4953687;29;20231;-69
2023/01/26 10:53:12;;;;;;;1999.90;999.90;;;;;;;;;;4953093;29;20437;-67
2023/01/26 10:56:00;;;;;;;1999.90;999.90;;;;;;;;;;4952757;29;20224;-67
2023/01/26 10:58:49;;;;;;;1999.90;999.90;;;;;;;;;;4953928;29;20673;-68
2023/01/26 11:01:50;;;;;;;1999.90;999.90;;;;;;;;;;4953721;29;20225;-68
2023/01/26 11:04:35;;;;;;;1999.90;999.90;;;;;;;;;;4952547;28;20319;-67
2023/01/26 11:07:25;;;;;;;1999.90;999.90;;;;;;;;;;4953386;28;20216;-68
2023/01/26 11:10:28;;;;;;;1999.90;999.90;;;;;;;;;;4949742;29;20221;-68
2023/01/26 11:13:17;;;;;;;1999.90;999.90;;;;;;;;;;4953808;29;20237;-68
2023/01/26 11:16:03;;;;;;;1999.90;999.90;;;;;;;;;;4934031;29;20216;-68
2023/01/26 11:18:54;;;;;;;1999.90;999.90;;;;;;;;;;4934531;29;20216;-68
2023/01/26 11:21:42;;;;;;;1999.90;999.90;;;;;;;;;;4934607;29;20708;-68
2023/01/26 11:24:32;;;;;;;1999.90;999.90;;;;;;;;;;4945959;29;20233;-68
2023/01/26 11:27:28;;;;;;;1999.90;999.90;;;;;;;;;;4948098;29;20208;-68
2023/01/26 11:30:27;;;;;;;1999.90;999.90;;;;;;;;;;4951466;29;20701;-69
2023/01/26 11:33:16;;;;;;;1999.90;999.90;;;;;;;;;;4953588;29;20228;-69
2023/01/26 11:36:05;;;;;;;1999.90;999.90;;;;;;;;;;4952976;29;20244;-69
2023/01/26 11:38:56;;;;;;;1999.90;999.90;;;;;;;;;;4953491;29;20220;-68
2023/01/26 11:41:48;;;;;;;1999.90;999.90;;;;;;;;;;4953557;29;20715;-69
2023/01/26 11:44:44;;;;;;;1999.90;999.90;;;;;;;;;;4948906;29;20218;-70
2023/01/26 11:47:39;;;;;;;1999.90;999.90;;;;;;;;;;4940192;29;20214;-69
2023/01/26 11:50:28;;;;;;;1999.90;999.90;;;;;;;;;;4953508;29;20702;-70
2023/01/26 11:53:29;;;;;;;1999.90;999.90;;;;;;;;;;4952598;28;20228;-71
2023/01/26 11:56:21;;;;;;;1999.90;999.90;;;;;;;;;;4949422;29;20233;-69
2023/01/26 11:59:09;;;;;;;1999.90;999.90;;;;;;;;;;4951440;28;20358;-70
2023/01/26 12:01:58;;;;;;;1999.90;999.90;;;;;;;;;;4950658;29;20206;-69
2023/01/26 12:04:46;;;;;;;1999.90;999.90;;;;;;;;;;4950743;28;20599;-69
2023/01/26 12:07:50;;;;;;;1999.90;999.90;;;;;;;;;;4949422;29;20250;-69
2023/01/26 12:10:39;;;;;;;1999.90;999.90;;;;;;;;;;4950596;29;20289;-69
2023/01/26 12:13:28;;;;;;;1999.90;999.90;;;;;;;;;;4950861;28;20593;-69
2023/01/26 12:16:17;;;;;;;1999.90;999.90;;;;;;;;;;4948548;29;20301;-69
2023/01/26 12:19:06;;;;;;;1999.90;999.90;;;;;;;;;;4951076;29;20286;-67
2023/01/26 12:21:54;;;;;;;1999.90;999.90;;;;;;;;;;4952515;28;20220;-68
2023/01/26 12:24:41;;;;;;;1999.90;999.90;;;;;;;;;;4953610;28;20232;-69
2023/01/26 12:27:28;;;;;;;1999.90;999.90;;;;;;;;;;4953362;29;20210;-69
2023/01/26 12:30:22;;;;;;;1999.90;999.90;;;;;;;;;;4951549;29;21031;-69
2023/01/26 12:33:08;;;;;;;1999.90;999.90;;;;;;;;;;4954101;29;20231;-68
2023/01/26 12:36:01;;;;;;;1999.90;999.90;;;;;;;;;;4953831;29;20231;-69
2023/01/26 12:38:56;;;;;;;1999.90;999.90;;;;;;;;;;4953748;29;20216;-68
2023/01/26 12:41:58;;;;;;;1999.90;999.90;;;;;;;;;;4953483;29;20209;-69
2023/01/26 12:44:46;;;;;;;1999.90;999.90;;;;;;;;;;4952816;28;20732;-69
2023/01/26 12:47:31;;;;;;;1999.90;999.90;;;;;;;;;;4953437;28;20343;-69
2023/01/26 12:50:29;;;;;;;1999.90;999.90;;;;;;;;;;4953101;29;20232;-68
2023/01/26 12:53:16;;;;;;;1999.90;999.90;;;;;;;;;;4953786;28;20283;-68
2023/01/26 12:56:07;;;;;;;1999.90;999.90;;;;;;;;;;4952360;29;20226;-69
2023/01/26 12:58:53;;;;;;;1999.90;999.90;;;;;;;;;;4952604;29;20207;-68
2023/01/26 13:01:39;;;;;;;1999.90;999.90;;;;;;;;;;4953521;29;20210;-67
2023/01/26 13:04:24;;;;;;;1999.90;999.90;;;;;;;;;;4953232;28;20289;-68
2023/01/26 13:07:24;;;;;;;1999.90;999.90;;;;;;;;;;4957738;28;20218;-67
2023/01/26 13:10:19;;;;;;;1999.90;999.90;;;;;;;;;;4956312;28;20210;-69
2023/01/26 13:13:19;;;;;;;1999.90;999.90;;;;;;;;;;4956415;28;20275;-66
2023/01/26 13:16:25;;;;;;;1999.90;999.90;;;;;;;;;;4952986;29;20354;-67
2023/01/26 13:19:33;;;;;;;1999.90;999.90;;;;;;;;;;4953063;29;20584;-68
2023/01/26 13:22:37;;;;;;;1999.90;999.90;;;;;;;;;;4954685;28;20207;-68
2023/01/26 13:25:28;;;;;;;1999.90;999.90;;;;;;;;;;4951895;29;20286;-67
2023/01/26 13:28:13;;;;;;;1999.90;999.90;;;;;;;;;;4953157;29;20331;-68
2023/01/26 13:31:02;;;;;;;1999.90;999.90;;;;;;;;;;4953340;29;20224;-68
2023/01/26 13:33:48;;;;;;;1999.90;999.90;;;;;;;;;;4952597;28;20222;-67
2023/01/26 13:36:36;;;;;;;1999.90;999.90;;;;;;;;;;4951764;28;20309;-68
2023/01/26 13:39:26;;;;;;;1999.90;999.90;;;;;;;;;;4954538;28;20254;-67
2023/01/26 13:42:15;;;;;;;1999.90;999.90;;;;;;;;;;4953153;29;20216;-68
2023/01/26 13:45:03;;;;;;;1999.90;999.90;;;;;;;;;;4950386;29;20324;-68
2023/01/26 13:47:49;;;;;;;1999.90;999.90;;;;;;;;;;4952785;29;20210;-67
2023/01/26 13:50:36;;;;;;;1999.90;999.90;;;;;;;;;;4952510;29;20266;-67
2023/01/26 13:53:40;;;;;;;1999.90;999.90;;;;;;;;;;4953152;28;20227;-67
2023/01/26 13:56:28;;;;;;;1999.90;999.90;;;;;;;;;;4951802;29;20248;-67
2023/01/26 13:59:14;;;;;;;1999.90;999.90;;;;;;;;;;4952597;29;20219;-67
2023/01/26 14:01:59;;;;;;;1999.90;999.90;;;;;;;;;;4950624;29;20691;-67
2023/01/26 14:04:50;;;;;;;1999.90;999.90;;;;;;;;;;4951815;28;20424;-67
2023/01/26 14:07:37;;;;;;;1999.90;999.90;;;;;;;;;;4953439;28;20344;-67
2023/01/26 14:10:23;;;;;;;1999.90;999.90;;;;;;;;;;4956617;28;20211;-67
2023/01/26 14:13:19;;;;;;;1999.90;999.90;;;;;;;;;;4957120;28;20596;-66
2023/01/26 14:16:06;;;;;;;1999.90;999.90;;;;;;;;;;4953925;28;20296;-66
2023/01/26 14:18:51;;;;;;;1999.90;999.90;;;;;;;;;;4958052;28;20344;-65
2023/01/26 14:21:45;;;;;;;1999.90;999.90;;;;;;;;;;4957134;28;20949;-67
2023/01/26 14:24:32;;;;;;;1999.90;999.90;;;;;;;;;;4953126;28;20295;-67
2023/01/26 14:27:31;;;;;;;1999.90;999.90;;;;;;;;;;4956963;28;20207;-67
2023/01/26 14:30:26;;;;;;;1999.90;999.90;;;;;;;;;;4956063;28;20211;-66
2023/01/26 14:33:12;;;;;;;1999.90;999.90;;;;;;;;;;4954206;28;20239;-67
2023/01/26 14:35:58;;;;;;;1999.90;999.90;;;;;;;;;;4953655;28;20231;-66
2023/01/26 14:38:45;;;;;;;1999.90;999.90;;;;;;;;;;4953105;28;20224;-66
2023/01/26 14:41:31;;;;;;;1999.90;999.90;;;;;;;;;;4956202;28;20777;-68
2023/01/26 14:44:16;;;;;;;1999.90;999.90;;;;;;;;;;4956533;28;20893;-66
2023/01/26 14:47:03;;;;;;;1999.90;999.90;;;;;;;;;;4954709;28;20212;-67
2023/01/26 14:49:51;;;;;;;1999.90;999.90;;;;;;;;;;4952662;28;20231;-66
2023/01/26 14:52:38;;;;;;;1999.90;999.90;;;;;;;;;;4956233;28;20772;-67
2023/01/26 14:55:25;;;;;;;1999.90;999.90;;;;;;;;;;4956772;28;20228;-67
2023/01/26 14:58:13;;;;;;;1999.90;999.90;;;;;;;;;;4955634;28;20221;-68
2023/01/26 15:00:59;;;;;;;1999.90;999.90;;;;;;;;;;4955622;28;20753;-67
2023/01/26 15:03:50;;;;;;;1999.90;999.90;;;;;;;;;;4957361;28;20372;-66
2023/01/26 15:06:35;;;;;;;1999.90;999.90;;;;;;;;;;4953700;28;20270;-66
2023/01/26 15:09:21;;;;;;;1999.90;999.90;;;;;;;;;;4956081;28;20216;-66
2023/01/26 15:12:17;;;;;;;1999.90;999.90;;;;;;;;;;4956875;28;20210;-67
2023/01/26 15:15:02;;;;;;;1999.90;999.90;;;;;;;;;;4954419;28;20426;-66
2023/01/26 15:17:59;;;;;;;1999.90;999.90;;;;;;;;;;4955427;28;20235;-67
2023/01/26 15:20:49;;;;;;;1999.90;999.90;;;;;;;;;;4952357;28;20207;-67
2023/01/26 15:23:35;;;;;;;1999.90;999.90;;;;;;;;;;4954844;28;20238;-67
2023/01/26 15:26:25;;;;;;;1999.90;999.90;;;;;;;;;;4950302;28;20200;-69
2023/01/26 15:29:18;;;;;;;1999.90;999.90;;;;;;;;;;4950976;29;20713;-68
2023/01/26 15:32:03;;;;;;;1999.90;999.90;;;;;;;;;;4948355;29;20742;-68
2023/01/26 15:34:48;;;;;;;1999.90;999.90;;;;;;;;;;4949030;28;20271;-68
2023/01/26 15:37:35;;;;;;;1999.90;999.90;;;;;;;;;;4950755;29;20216;-68
2023/01/26 15:40:19;;;;;;;1999.90;999.90;;;;;;;;;;4950734;29;20482;-70
2023/01/26 15:43:14;;;;;;;1999.90;999.90;;;;;;;;;;4949500;28;20235;-68
2023/01/26 15:46:00;;;;;;;1999.90;999.90;;;;;;;;;;4950754;29;20215;-68
2023/01/26 15:48:45;;;;;;;1999.90;999.90;;;;;;;;;;4950884;29;20296;-68
2023/01/26 15:51:30;;;;;;;1999.90;999.90;;;;;;;;;;4950676;29;20744;-69
2023/01/26 15:54:16;;;;;;;1999.90;999.90;;;;;;;;;;4948931;28;20644;-68
2023/01/26 15:57:01;;;;;;;1999.90;999.90;;;;;;;;;;4951257;28;20532;-70
2023/01/26 15:59:46;;;;;;;1999.90;999.90;;;;;;;;;;4954601;29;20611;-70
2023/01/26 16:02:31;;;;;;;1999.90;999.90;;;;;;;;;;4954685;29;20215;-68
2023/01/26 16:05:17;;;;;;;1999.90;999.90;;;;;;;;;;4954035;29;20297;-69
2023/01/26 16:08:02;;;;;;;1999.90;999.90;;;;;;;;;;4954091;29;20212;-68
2023/01/26 16:10:48;;;;;;;1999.90;999.90;;;;;;;;;;4954230;29;20211;-69
2023/01/26 16:13:34;;;;;;;1999.90;999.90;;;;;;;;;;4953715;29;20235;-68
2023/01/26 16:16:18;;;;;;;1999.90;999.90;;;;;;;;;;4952303;29;20347;-68
2023/01/26 16:19:03;;;;;;;1999.90;999.90;;;;;;;;;;4954610;29;20215;-69
2023/01/26 16:21:48;;;;;;;1999.90;999.90;;;;;;;;;;4954671;29;20211;-67
2023/01/26 16:24:33;;;;;;;1999.90;999.90;;;;;;;;;;4955088;28;20238;-68
2023/01/26 16:27:20;;;;;;;1999.90;999.90;;;;;;;;;;4955024;29;20717;-68
2023/01/26 16:30:07;;;;;;;1999.90;999.90;;;;;;;;;;4953878;29;20219;-68
2023/01/26 16:32:52;;;;;;;1999.90;999.90;;;;;;;;;;4956325;28;20696;-69
2023/01/26 16:35:37;;;;;;;1999.90;999.90;;;;;;;;;;4956229;29;20272;-68
2023/01/26 16:38:22;;;;;;;1999.90;999.90;;;;;;;;;;4953900;29;20219;-69
2023/01/26 16:41:12;;;;;;;1999.90;999.90;;;;;;;;;;4952343;29;20694;-68
2023/01/26 16:44:00;;;;;;;1999.90;999.90;;;;;;;;;;4951830;28;20344;-69
2023/01/26 16:46:45;;;;;;;1999.90;999.90;;;;;;;;;;4953114;29;20272;-68
2023/01/26 16:49:30;;;;;;;1999.90;999.90;;;;;;;;;;4953566;29;20204;-68
2023/01/26 16:52:14;;;;;;;1999.90;999.90;;;;;;;;;;4953454;29;20412;-67
2023/01/26 16:54:59;;;;;;;1999.90;999.90;;;;;;;;;;4953630;28;20314;-68
2023/01/26 16:57:45;;;;;;;1999.90;999.90;;;;;;;;;;4953520;29;20710;-69
2023/01/26 17:00:32;;;;;;;1999.90;999.90;;;;;;;;;;4954064;29;20215;-69
2023/01/26 17:03:17;;;;;;;1999.90;999.90;;;;;;;;;;4953352;28;20234;-69
2023/01/26 17:06:02;;;;;;;1999.90;999.90;;;;;;;;;;4953543;29;20240;-69
2023/01/26 17:08:47;;;;;;;1999.90;999.90;;;;;;;;;;4952170;28;20233;-70
2023/01/26 17:11:32;;;;;;;1999.90;999.90;;;;;;;;;;4951611;29;20205;-67
2023/01/26 17:14:17;;;;;;;1999.90;999.90;;;;;;;;;;4950553;28;20241;-71
2023/01/26 17:17:03;;;;;;;1999.90;999.90;;;;;;;;;;4953284;29;20620;-71
2023/01/26 17:19:48;;;;;;;1999.90;999.90;;;;;;;;;;4951483;29;20417;-70
2023/01/26 17:22:33;;;;;;;1999.90;999.90;;;;;;;;;;4953649;29;20583;-69
2023/01/26 17:25:18;;;;;;;1999.90;999.90;;;;;;;;;;4953279;29;20807;-70
2023/01/26 17:28:03;;;;;;;1999.90;999.90;;;;;;;;;;4953205;29;20210;-71
2023/01/26 17:30:48;;;;;;;1999.90;999.90;;;;;;;;;;4953500;29;20651;-69
2023/01/26 17:33:34;;;;;;;1999.90;999.90;;;;;;;;;;4952824;28;20235;-71
2023/01/26 17:36:20;;;;;;;1999.90;999.90;;;;;;;;;;4953270;29;20359;-70
2023/01/26 17:39:05;;;;;;;1999.90;999.90;;;;;;;;;;4950472;29;20219;-71
2023/01/26 17:41:50;;;;;;;1999.90;999.90;;;;;;;;;;4954091;29;20230;-71
2023/01/26 17:44:35;;;;;;;1999.90;999.90;;;;;;;;;;4953256;28;20240;-70
2023/01/26 17:47:20;;;;;;;1999.90;999.90;;;;;;;;;;4953743;29;20214;-70
2023/01/26 17:50:07;;;;;;;1999.90;999.90;;;;;;;;;;4966027;28;20216;-69
2023/01/26 17:52:52;;;;;;;1999.90;999.90;;;;;;;;;;4973220;28;20337;-70
2023/01/26 17:55:37;;;;;;;1999.90;999.90;;;;;;;;;;4969524;28;20266;-70
2023/01/26 17:58:22;;;;;;;1999.90;999.90;;;;;;;;;;4973086;28;20213;-70
2023/01/26 18:01:08;;;;;;;1999.90;999.90;;;;;;;;;;4973047;28;20219;-69
2023/01/26 18:03:53;;;;;;;1999.90;999.90;;;;;;;;;;4972690;28;20228;-69
2023/01/26 18:06:40;;;;;;;1999.90;999.90;;;;;;;;;;4972068;28;20237;-69
2023/01/26 18:09:25;;;;;;;1999.90;999.90;;;;;;;;;;4972978;28;20214;-71
2023/01/26 18:12:10;;;;;;;1999.90;999.90;;;;;;;;;;4973243;28;20411;-70
2023/01/26 18:14:55;;;;;;;1999.90;999.90;;;;;;;;;;4972322;28;20241;-71
2023/01/26 18:17:40;;;;;;;1999.90;999.90;;;;;;;;;;4972564;28;20243;-70
2023/01/26 18:20:25;;;;;;;1999.90;999.90;;;;;;;;;;4969568;28;20588;-71
2023/01/26 18:23:11;;;;;;;1999.90;999.90;;;;;;;;;;4965671;28;20241;-70
2023/01/26 18:26:05;;;;;;;1999.90;999.90;;;;;;;;;;4950673;29;20821;-70
2023/01/26 18:28:50;;;;;;;1999.90;999.90;;;;;;;;;;4952142;29;20258;-70
2023/01/26 18:31:36;;;;;;;1999.90;999.90;;;;;;;;;;4950604;29;20528;-70
2023/01/26 18:34:21;;;;;;;1999.90;999.90;;;;;;;;;;4950856;29;20230;-70
2023/01/26 18:37:06;;;;;;;1999.90;999.90;;;;;;;;;;4952113;29;20220;-71
2023/01/26 18:39:52;;;;;;;1999.90;999.90;;;;;;;;;;4952004;29;20215;-71
2023/01/26 18:42:37;;;;;;;1999.90;999.90;;;;;;;;;;4953511;29;20454;-69
2023/01/26 18:45:23;;;;;;;1999.90;999.90;;;;;;;;;;4953486;29;20215;-71
2023/01/26 18:48:08;;;;;;;1999.90;999.90;;;;;;;;;;4953849;29;20204;-69
2023/01/26 18:50:53;;;;;;;1999.90;999.90;;;;;;;;;;4954084;29;20294;-71
2023/01/26 18:53:38;;;;;;;1999.90;999.90;;;;;;;;;;4953799;28;20239;-69
2023/01/26 18:56:25;;;;;;;1999.90;999.90;;;;;;;;;;4952807;29;20432;-70
2023/01/26 18:59:11;;;;;;;1999.90;999.90;;;;;;;;;;4953658;29;20568;-70
2023/01/26 19:01:56;;;;;;;1999.90;999.90;;;;;;;;;;4953423;29;20210;-70
2023/01/26 19:04:41;;;;;;;1999.90;999.90;;;;;;;;;;4952761;28;20243;-72
2023/01/26 19:07:26;;;;;;;1999.90;999.90;;;;;;;;;;4962429;28;20696;-70
2023/01/26 19:10:11;;;;;;;1999.90;999.90;;;;;;;;;;4969037;28;20219;-69
2023/01/26 19:12:57;;;;;;;1999.90;999.90;;;;;;;;;;4972250;28;20328;-70
2023/01/26 19:15:44;;;;;;;1999.90;999.90;;;;;;;;;;4972875;28;20625;-70
2023/01/26 19:18:29;;;;;;;1999.90;999.90;;;;;;;;;;4957309;28;20233;-71
2023/01/26 19:21:14;;;;;;;1999.90;999.90;;;;;;;;;;4953403;29;20297;-70
2023/01/26 19:24:01;;;;;;;1999.90;999.90;;;;;;;;;;4952612;29;20313;-71
2023/01/26 19:26:46;;;;;;;1999.90;999.90;;;;;;;;;;4953345;29;20211;-70
2023/01/26 19:29:32;;;;;;;1999.90;999.90;;;;;;;;;;4934448;29;20225;-71